Time;durP1;ratioP1;P1;durP2;ratioP2;P2;SDS_P1;SDS_P2;PMS_P1;PMS_P2;Temp;Humidity;BMP_temperature;BMP_pressure;BME280_temperature;BME280_humidity;BME280_pressure;Samples;Min_cycle;Max_cycle;Signal;HPM_P1;HPM_P2
2023/02/10 00:01:30;;;;;;;18.97;13.50;;;;;;;1.15;63.38;97258.38;6067325;23;20180;-80
2023/02/10 00:03:57;;;;;;;19.53;13.37;;;;;;;1.19;62.88;97267.44;6068843;23;20181;-81
2023/02/10 00:06:25;;;;;;;17.70;12.90;;;;;;;1.19;63.23;97270.78;6067582;23;20251;-81
2023/02/10 00:08:54;;;;;;;17.90;12.37;;;;;;;1.25;62.96;97269.66;6052419;23;20220;-81
2023/02/10 00:11:55;;;;;;;17.20;12.57;;;;;;;1.29;62.87;97273.69;6067580;23;20545;-81
2023/02/10 00:14:11;;;;;;;16.40;12.07;;;;;;;1.27;62.40;97278.84;6027682;23;20287;-80
2023/02/10 00:16:37;;;;;;;16.07;11.93;;;;;;;1.24;62.59;97275.63;6067385;23;20212;-81
2023/02/10 00:19:04;;;;;;;20.10;12.07;;;;;;;1.23;63.14;97284.97;6038650;23;20208;-81
2023/02/10 00:21:30;;;;;;;15.57;11.77;;;;;;;1.22;63.23;97280.78;6063908;23;20177;-81
2023/02/10 00:23:57;;;;;;;14.73;11.30;;;;;;;1.24;62.66;97281.53;6068481;23;20177;-81
2023/02/10 00:26:23;;;;;;;14.43;11.00;;;;;;;1.28;62.96;97285.56;6067583;23;20201;-80
2023/02/10 00:28:51;;;;;;;16.10;11.30;;;;;;;1.33;62.47;97283.63;6067984;23;20235;-81
2023/02/10 00:31:21;;;;;;;16.03;11.13;;;;;;;1.28;62.98;97295.72;6067357;23;20196;-81
2023/02/10 00:33:47;;;;;;;15.70;11.73;;;;;;;1.32;62.85;97304.00;6069657;23;20181;-81
2023/02/10 00:36:16;;;;;;;13.73;11.20;;;;;;;1.33;62.60;97308.19;6068130;23;20219;-80
2023/02/10 00:38:43;;;;;;;16.40;11.00;;;;;;;1.34;62.91;97309.81;6054001;23;20217;-80
2023/02/10 00:41:11;;;;;;;17.30;12.13;;;;;;;1.33;62.83;97298.84;6069587;23;20192;-81
2023/02/10 00:43:39;;;;;;;15.53;11.30;;;;;;;1.34;62.72;97299.66;6068043;23;20189;-81
2023/02/10 00:46:05;;;;;;;15.67;11.93;;;;;;;1.34;62.96;97317.44;6068048;23;20200;-81
2023/02/10 00:48:34;;;;;;;18.37;12.57;;;;;;;1.30;62.90;97315.94;6067907;23;20561;-81
2023/02/10 00:51:00;;;;;;;16.30;12.13;;;;;;;1.31;63.22;97312.50;6068235;23;20177;-81
2023/02/10 00:53:27;;;;;;;15.47;11.40;;;;;;;1.30;63.10;97316.75;6067002;23;20266;-81
2023/02/10 00:55:54;;;;;;;14.40;11.37;;;;;;;1.29;63.34;97319.38;6068407;23;20215;-81
2023/02/10 00:58:21;;;;;;;17.60;12.00;;;;;;;1.29;63.60;97317.66;6067109;23;20208;-81
2023/02/10 01:00:49;;;;;;;15.90;11.83;;;;;;;1.27;63.92;97323.69;6067744;23;20177;-81
2023/02/10 01:03:16;;;;;;;17.27;11.07;;;;;;;1.30;63.97;97315.94;6067017;23;20216;-81
2023/02/10 01:05:44;;;;;;;15.20;11.03;;;;;;;1.29;63.70;97324.44;6052185;23;20216;-81
2023/02/10 01:08:11;;;;;;;15.30;11.30;;;;;;;1.30;63.98;97326.09;6067114;23;20228;-81
2023/02/10 01:10:37;;;;;;;16.77;11.97;;;;;;;1.30;63.92;97328.63;6068638;23;20184;-81
2023/02/10 01:13:05;;;;;;;16.47;11.30;;;;;;;1.28;63.73;97326.16;6066677;23;20209;-81
2023/02/10 01:15:32;;;;;;;15.67;11.30;;;;;;;1.33;63.47;97331.00;6009553;23;20215;-81
2023/02/10 01:17:58;;;;;;;14.70;11.40;;;;;;;1.30;63.72;97333.69;6059872;23;20209;-81
2023/02/10 01:20:26;;;;;;;17.10;11.60;;;;;;;1.26;63.74;97333.03;6067355;23;20184;-81
2023/02/10 01:22:54;;;;;;;17.27;11.63;;;;;;;1.19;63.97;97333.41;6066598;23;20564;-81
2023/02/10 01:25:20;;;;;;;17.47;11.53;;;;;;;1.14;64.21;97337.91;6051594;23;20220;-81
2023/02/10 01:27:47;;;;;;;15.30;11.43;;;;;;;1.22;63.63;97335.78;6067001;23;20205;-81
2023/02/10 01:30:13;;;;;;;16.10;11.67;;;;;;;1.26;63.60;97333.03;6050987;23;20208;-81
2023/02/10 01:32:40;;;;;;;16.17;11.43;;;;;;;1.29;63.51;97334.59;6066948;23;20252;-81
2023/02/10 01:35:06;;;;;;;15.10;11.07;;;;;;;1.31;63.61;97333.63;6066925;23;20204;-81
2023/02/10 01:37:36;;;;;;;15.03;11.63;;;;;;;1.37;63.02;97324.88;6066788;23;20209;-81
2023/02/10 01:40:05;;;;;;;15.27;10.97;;;;;;;1.38;63.02;97331.56;6067915;23;20204;-81
2023/02/10 01:42:31;;;;;;;13.67;10.77;;;;;;;1.39;62.94;97328.16;6066695;23;20216;-81
2023/02/10 01:45:24;;;;;;;15.57;10.97;;;;;;;1.37;63.37;97338.38;6068424;23;20201;-81
2023/02/10 01:47:53;;;;;;;15.83;10.93;;;;;;;1.38;62.85;97342.56;6068499;23;20215;-80
2023/02/10 01:50:22;;;;;;;15.03;10.40;;;;;;;1.37;62.58;97348.53;6068573;23;20189;-81
2023/02/10 01:52:49;;;;;;;15.33;11.40;;;;;;;1.35;62.85;97357.09;6067248;23;20234;-81
2023/02/10 01:55:21;;;;;;;15.80;11.33;;;;;;;1.35;63.13;97360.47;6067825;23;20547;-81
2023/02/10 01:57:53;;;;;;;14.70;10.47;;;;;;;1.32;63.08;97353.03;6067392;23;20224;-80
2023/02/10 02:00:21;;;;;;;15.47;11.23;;;;;;;1.29;63.15;97352.34;6051857;23;20240;-80
2023/02/10 02:02:48;;;;;;;18.23;11.23;;;;;;;1.24;62.81;97350.03;6067270;23;20232;-81
2023/02/10 02:05:29;;;;;;;16.00;11.33;;;;;;;1.21;63.33;97352.72;6067887;23;20197;-81
2023/02/10 02:07:57;;;;;;;14.83;10.80;;;;;;;1.19;63.07;97354.50;6067307;23;20549;-81
2023/02/10 02:10:35;;;;;;;16.13;10.90;;;;;;;1.19;63.13;97353.69;6052217;23;20208;-81
2023/02/10 02:13:07;;;;;;;14.33;10.40;;;;;;;1.17;63.23;97358.00;6066069;23;20204;-81
2023/02/10 02:15:41;;;;;;;14.80;11.00;;;;;;;1.19;63.28;97356.22;6067607;23;20759;-81
2023/02/10 02:18:15;;;;;;;16.47;10.47;;;;;;;1.22;63.02;97371.31;6066639;23;20213;-81
2023/02/10 02:21:08;;;;;;;15.67;10.63;;;;;;;1.22;62.76;97368.75;6007153;23;20588;-80
2023/02/10 02:24:08;;;;;;;15.27;11.23;;;;;;;1.23;63.09;97370.41;6066600;23;20205;-81
2023/02/10 02:26:59;;;;;;;14.50;10.60;;;;;;;1.18;62.77;97369.81;6067110;23;20209;-80
2023/02/10 02:29:45;;;;;;;14.43;10.90;;;;;;;1.09;63.07;97366.00;6066289;23;20185;-81
2023/02/10 02:32:18;;;;;;;13.77;11.23;;;;;;;1.02;63.54;97373.09;6066391;23;20718;-81
2023/02/10 02:34:51;;;;;;;13.60;10.77;;;;;;;0.99;63.18;97373.22;6067987;23;20197;-81
2023/02/10 02:37:21;;;;;;;15.33;11.47;;;;;;;1.00;63.50;97366.44;6066831;23;20204;-81
2023/02/10 02:39:49;;;;;;;14.30;11.07;;;;;;;0.94;63.62;97374.38;6067963;23;20181;-81
2023/02/10 02:42:19;;;;;;;13.47;10.93;;;;;;;0.97;63.31;97380.09;6067030;23;20267;-81
2023/02/10 02:44:48;;;;;;;14.73;11.07;;;;;;;0.99;63.16;97372.41;6067323;23;20201;-81
2023/02/10 02:47:28;;;;;;;17.63;11.03;;;;;;;1.00;63.32;97381.66;6067097;23;20205;-81
2023/02/10 02:50:07;;;;;;;16.20;10.37;;;;;;;1.00;63.00;97376.59;6067925;23;20329;-81
2023/02/10 02:52:49;;;;;;;13.17;10.40;;;;;;;0.94;63.21;97374.38;6068880;23;20208;-81
2023/02/10 02:55:27;;;;;;;13.93;10.63;;;;;;;0.88;63.28;97369.59;6070133;23;20261;-81
2023/02/10 02:57:58;;;;;;;17.97;10.73;;;;;;;0.83;63.89;97369.78;6070107;23;20208;-83
2023/02/10 03:00:28;;;;;;;15.43;10.67;;;;;;;0.84;63.75;97373.97;6069300;23;20555;-81
2023/02/10 03:02:57;;;;;;;14.43;10.70;;;;;;;0.88;63.48;97367.03;6068935;23;20220;-81
2023/02/10 03:05:29;;;;;;;12.47;9.73;;;;;;;0.94;63.37;97369.28;6053719;23;20216;-81
2023/02/10 03:07:56;;;;;;;15.00;10.77;;;;;;;0.98;63.45;97366.50;6068034;23;20212;-81
2023/02/10 03:10:22;;;;;;;14.83;10.60;;;;;;;1.01;63.20;97365.56;6069297;23;20235;-80
2023/02/10 03:12:50;;;;;;;15.00;10.30;;;;;;;1.00;62.87;97363.91;6068611;23;20215;-81
2023/02/10 03:15:16;;;;;;;14.17;10.20;;;;;;;1.00;62.69;97359.66;6068998;23;20239;-81
2023/02/10 03:17:43;;;;;;;14.03;10.07;;;;;;;0.91;63.08;97370.25;6069350;23;20239;-81
2023/02/10 03:20:12;;;;;;;13.23;10.00;;;;;;;0.94;62.84;97371.84;6069166;23;20181;-80
2023/02/10 03:22:38;;;;;;;12.90;10.03;;;;;;;0.94;63.25;97371.84;6068111;23;20208;-81
2023/02/10 03:25:05;;;;;;;12.60;9.70;;;;;;;1.00;62.86;97366.44;6069880;23;20544;-81
2023/02/10 03:27:32;;;;;;;13.17;10.23;;;;;;;1.00;63.05;97369.81;6068201;23;20244;-81
2023/02/10 03:29:58;;;;;;;13.07;9.90;;;;;;;1.05;62.73;97372.13;6069785;23;20192;-81
2023/02/10 03:32:25;;;;;;;12.37;9.80;;;;;;;1.03;62.70;97362.06;6068894;23;20212;-81
2023/02/10 03:34:51;;;;;;;12.30;9.63;;;;;;;1.07;62.62;97377.13;6037284;23;20216;-81
2023/02/10 03:37:19;;;;;;;14.43;9.63;;;;;;;1.10;62.37;97371.91;6061375;23;20676;-81
2023/02/10 03:39:46;;;;;;;15.03;10.53;;;;;;;1.11;62.11;97376.91;6069727;23;20256;-81
2023/02/10 03:42:13;;;;;;;12.33;9.57;;;;;;;1.11;62.16;97383.69;6067481;23;20228;-81
2023/02/10 03:44:40;;;;;;;16.00;10.43;;;;;;;1.10;62.20;97380.34;6068537;23;20211;-81
2023/02/10 03:47:06;;;;;;;15.17;9.70;;;;;;;1.09;61.94;97386.31;6067735;23;20631;-81
2023/02/10 03:49:32;;;;;;;11.67;9.60;;;;;;;1.09;62.36;97386.31;6068675;23;20181;-81
2023/02/10 03:51:59;;;;;;;12.63;9.43;;;;;;;1.10;62.13;97387.13;6068037;23;20225;-80
2023/02/10 03:54:27;;;;;;;14.57;9.83;;;;;;;1.06;62.41;97391.53;6069722;23;20623;-81
2023/02/10 03:56:54;;;;;;;14.03;9.83;;;;;;;1.00;62.21;97385.03;6068017;23;20231;-81
2023/02/10 03:59:20;;;;;;;15.53;10.13;;;;;;;1.00;61.96;97379.13;6069084;23;20207;-81
2023/02/10 04:01:46;;;;;;;11.57;9.23;;;;;;;0.97;62.27;97377.56;6068786;23;20227;-80
2023/02/10 04:04:13;;;;;;;12.43;8.97;;;;;;;0.97;62.39;97377.56;6069392;23;20180;-81
2023/02/10 04:06:39;;;;;;;13.07;8.73;;;;;;;0.97;62.19;97375.03;6068210;23;20221;-81
2023/02/10 04:09:06;;;;;;;12.97;8.60;;;;;;;0.93;62.39;97377.78;6069956;23;20184;-81
2023/02/10 04:11:33;;;;;;;11.90;8.50;;;;;;;0.90;62.32;97377.94;6069050;23;20230;-81
2023/02/10 04:14:00;;;;;;;13.37;9.23;;;;;;;0.93;62.22;97373.53;6074196;23;20180;-81
2023/02/10 04:16:27;;;;;;;15.07;9.80;;;;;;;0.92;62.37;97374.44;6076791;23;20201;-81
2023/02/10 04:18:54;;;;;;;12.97;9.60;;;;;;;0.92;62.22;97392.19;6078209;23;20271;-80
2023/02/10 04:21:20;;;;;;;11.13;9.40;;;;;;;0.92;62.70;97393.91;6077378;23;20181;-81
2023/02/10 04:23:47;;;;;;;14.40;9.80;;;;;;;0.93;62.20;97393.84;6077931;23;20188;-80
2023/02/10 04:26:13;;;;;;;14.63;9.70;;;;;;;0.96;62.07;97387.78;6077620;23;20204;-80
2023/02/10 04:28:41;;;;;;;11.13;8.37;;;;;;;0.98;61.98;97391.06;6077014;23;20177;-81
2023/02/10 04:31:09;;;;;;;12.93;9.53;;;;;;;1.00;62.29;97391.81;6076642;23;20247;-81
2023/02/10 04:33:36;;;;;;;14.10;9.33;;;;;;;1.03;61.95;97395.03;6076674;23;20267;-80
2023/02/10 04:36:03;;;;;;;13.40;9.53;;;;;;;1.07;61.94;97400.78;6061819;23;20220;-81
2023/02/10 04:38:30;;;;;;;12.20;8.63;;;;;;;0.99;62.08;97393.53;6073483;23;20265;-81
2023/02/10 04:40:57;;;;;;;11.77;9.63;;;;;;;1.02;62.17;97403.53;6075185;23;20240;-81
2023/02/10 04:43:23;;;;;;;13.20;9.23;;;;;;;1.02;62.00;97411.13;6073877;23;20216;-81
2023/02/10 04:45:51;;;;;;;14.97;9.53;;;;;;;1.01;61.81;97404.41;6074081;23;20374;-81
2023/02/10 04:48:19;;;;;;;12.53;9.10;;;;;;;1.00;61.66;97399.41;6073173;23;20207;-81
2023/02/10 04:50:46;;;;;;;14.37;9.40;;;;;;;1.03;62.01;97410.25;6058153;23;20228;-81
2023/02/10 04:53:12;;;;;;;11.53;9.13;;;;;;;1.01;61.97;97406.94;6072446;23;20224;-80
2023/02/10 04:55:38;;;;;;;11.87;8.73;;;;;;;0.95;61.80;97409.81;6057940;23;20256;-81
2023/02/10 04:58:05;;;;;;;13.50;9.37;;;;;;;0.88;62.15;97410.16;6072422;23;20236;-83
2023/02/10 05:00:31;;;;;;;12.43;8.73;;;;;;;0.86;62.04;97410.22;6071937;23;20241;-81
2023/02/10 05:02:59;;;;;;;13.40;9.50;;;;;;;0.81;62.34;97407.06;6072273;23;20212;-81
2023/02/10 05:05:27;;;;;;;13.00;9.50;;;;;;;0.79;62.27;97406.31;6072964;23;20518;-81
2023/02/10 05:07:54;;;;;;;14.17;9.13;;;;;;;0.71;62.26;97403.34;6072263;23;20208;-81
2023/02/10 05:10:21;;;;;;;11.90;8.90;;;;;;;0.63;62.37;97402.84;6072710;23;20181;-81
2023/02/10 05:12:47;;;;;;;12.83;9.33;;;;;;;0.55;62.85;97404.94;6072882;23;20261;-81
2023/02/10 05:15:14;;;;;;;11.67;8.63;;;;;;;0.53;62.77;97415.16;6072790;23;20207;-81
2023/02/10 05:17:40;;;;;;;10.77;8.53;;;;;;;0.46;62.60;97420.53;6072583;23;20319;-81
2023/02/10 05:20:09;;;;;;;12.00;8.87;;;;;;;0.50;62.59;97427.13;6041038;23;20564;-81
2023/02/10 05:22:36;;;;;;;13.77;9.67;;;;;;;0.37;62.79;97426.03;6063934;23;20212;-81
2023/02/10 05:25:03;;;;;;;12.93;9.43;;;;;;;0.32;63.39;97428.78;6072603;23;20407;-80
2023/02/10 05:27:29;;;;;;;14.47;9.23;;;;;;;0.14;63.93;97427.88;6069949;23;20209;-80
2023/02/10 05:29:55;;;;;;;11.53;8.67;;;;;;;0.03;64.25;97432.56;6070071;23;20184;-81
2023/02/10 05:32:22;;;;;;;12.87;8.47;;;;;;;0.07;63.76;97435.78;6070120;23;20220;-81
2023/02/10 05:34:49;;;;;;;10.63;8.53;;;;;;;0.06;63.74;97434.97;6069459;23;20228;-81
2023/02/10 05:37:16;;;;;;;11.67;8.50;;;;;;;0.00;64.01;97451.25;6071584;23;20204;-81
2023/02/10 05:39:43;;;;;;;12.53;8.97;;;;;;;0.04;64.17;97438.47;6073151;23;20204;-81
2023/02/10 05:42:09;;;;;;;11.00;8.43;;;;;;;0.06;64.14;97449.34;6070823;23;20216;-80
2023/02/10 05:44:36;;;;;;;10.90;8.63;;;;;;;0.05;64.40;97452.75;6072058;23;20181;-80
2023/02/10 05:47:02;;;;;;;10.70;8.33;;;;;;;0.05;64.45;97450.22;6071323;23;20616;-81
2023/02/10 05:49:29;;;;;;;13.10;8.77;;;;;;;0.09;64.10;97444.97;6071089;23;21043;-81
2023/02/10 05:51:55;;;;;;;11.50;8.40;;;;;;;0.15;64.04;97447.25;6072130;23;20207;-81
2023/02/10 05:54:23;;;;;;;13.80;8.00;;;;;;;0.21;63.76;97446.97;6069853;23;20176;-81
2023/02/10 05:56:51;;;;;;;10.97;8.00;;;;;;;0.10;64.16;97456.75;6068408;23;20268;-81
2023/02/10 05:59:18;;;;;;;11.40;8.00;;;;;;;0.11;64.33;97463.47;6072127;23;20201;-82
2023/02/10 06:01:46;;;;;;;12.40;8.80;;;;;;;0.14;63.93;97473.47;6070227;23;20580;-82
2023/02/10 06:04:12;;;;;;;14.77;8.43;;;;;;;0.12;64.01;97470.19;6071740;23;20191;-82
2023/02/10 06:06:42;;;;;;;10.77;7.90;;;;;;;0.18;64.59;97476.69;6070488;23;20215;-82
2023/02/10 06:09:08;;;;;;;12.50;8.23;;;;;;;0.18;64.05;97484.28;6072225;23;20205;-82
2023/02/10 06:11:36;;;;;;;14.83;8.80;;;;;;;0.21;64.23;97476.53;6071642;23;20215;-82
2023/02/10 06:14:03;;;;;;;15.23;8.47;;;;;;;0.26;64.16;97480.53;6071595;23;20214;-83
2023/02/10 06:16:29;;;;;;;15.67;8.40;;;;;;;0.27;64.32;97469.50;6070857;23;20205;-82
2023/02/10 06:18:55;;;;;;;12.77;8.60;;;;;;;0.26;64.40;97470.38;6070680;23;20200;-83
2023/02/10 06:21:25;;;;;;;11.63;8.20;;;;;;;0.26;64.32;97482.22;6070892;23;20187;-83
2023/02/10 06:23:52;;;;;;;19.50;9.47;;;;;;;0.24;69.39;97484.00;6071410;23;20188;-83
2023/02/10 06:26:19;;;;;;;13.07;8.27;;;;;;;0.32;70.02;97482.78;6070578;23;20220;-83
2023/02/10 06:28:47;;;;;;;13.00;8.37;;;;;;;0.31;69.99;97483.69;6070817;23;20524;-83
2023/02/10 06:31:13;;;;;;;11.80;8.20;;;;;;;0.36;68.48;97488.56;6072875;23;20240;-83
2023/02/10 06:33:40;;;;;;;16.03;8.67;;;;;;;0.34;70.13;97492.88;6073555;23;20552;-83
2023/02/10 06:36:07;;;;;;;10.57;7.53;;;;;;;0.44;67.44;97489.03;6072796;23;20334;-83
2023/02/10 06:38:35;;;;;;;69.00;41.33;;;;;;;0.49;66.89;97494.72;6073838;23;20714;-83
2023/02/10 06:41:01;;;;;;;30.07;19.17;;;;;;;0.54;65.52;97497.88;6073624;23;20181;-83
2023/02/10 06:43:28;;;;;;;13.63;9.27;;;;;;;0.53;65.23;97491.16;6072026;23;20226;-83
2023/02/10 06:45:56;;;;;;;13.43;9.03;;;;;;;0.55;65.16;97494.47;6072010;23;20455;-83
2023/02/10 06:48:23;;;;;;;16.00;8.80;;;;;;;0.55;64.77;97502.06;6071643;23;20217;-83
2023/02/10 06:50:49;;;;;;;12.20;8.63;;;;;;;0.57;64.92;97502.00;6056788;23;20212;-83
2023/02/10 06:53:15;;;;;;;13.57;8.87;;;;;;;0.58;64.49;97506.97;6070643;23;20700;-83
2023/02/10 06:55:42;;;;;;;13.13;8.70;;;;;;;0.61;64.61;97514.44;6068887;23;20923;-79
2023/02/10 06:58:09;;;;;;;13.17;9.67;;;;;;;0.61;65.41;97506.03;6067263;23;20715;-81
2023/02/10 07:00:36;;;;;;;31.93;18.47;;;;;;;0.61;64.62;97511.91;6069773;23;20534;-81
2023/02/10 07:03:04;;;;;;;19.87;11.13;;;;;;;0.58;65.40;97511.22;6070074;23;20216;-81
2023/02/10 07:05:31;;;;;;;13.50;8.53;;;;;;;0.60;67.26;97519.56;6071185;23;20733;-83
2023/02/10 07:07:59;;;;;;;15.20;9.30;;;;;;;0.72;66.09;97518.22;6071237;23;20209;-83
2023/02/10 07:10:25;;;;;;;11.17;8.40;;;;;;;1.00;64.26;97527.03;6055262;23;20221;-83
2023/02/10 07:12:52;;;;;;;10.73;8.13;;;;;;;1.23;63.04;97520.91;6071131;23;20272;-84
2023/02/10 07:15:22;;;;;;;12.17;8.97;;;;;;;1.33;62.43;97516.25;6071475;23;20201;-81
2023/02/10 07:17:50;;;;;;;15.40;8.93;;;;;;;1.52;61.79;97532.25;6071766;23;20245;-83
2023/02/10 07:20:18;;;;;;;13.40;8.87;;;;;;;1.75;61.51;97533.66;6055574;23;20688;-83
2023/02/10 07:22:45;;;;;;;12.57;8.47;;;;;;;1.97;60.19;97538.53;6071393;23;20205;-83
2023/02/10 07:25:11;;;;;;;9.40;7.93;;;;;;;2.31;59.33;97542.78;6055765;23;21014;-83
2023/02/10 07:27:38;;;;;;;12.93;8.20;;;;;;;2.57;58.70;97542.25;6070850;23;20211;-83
2023/02/10 07:30:04;;;;;;;10.13;7.60;;;;;;;2.87;57.95;97536.47;6072641;23;20185;-81
2023/02/10 07:32:31;;;;;;;10.90;7.60;;;;;;;3.09;56.35;97536.94;6071305;23;20212;-81
2023/02/10 07:34:57;;;;;;;11.03;8.17;;;;;;;3.20;55.96;97529.56;6071582;23;20284;-80
2023/02/10 07:37:26;;;;;;;10.53;7.60;;;;;;;3.51;56.01;97535.53;6068798;23;20712;-81
2023/02/10 07:39:52;;;;;;;13.20;8.00;;;;;;;3.70;54.91;97536.97;6071062;23;20215;-81
2023/02/10 07:42:19;;;;;;;10.80;7.53;;;;;;;3.94;54.10;97544.94;6068215;23;20216;-82
2023/02/10 07:44:45;;;;;;;10.80;7.63;;;;;;;4.20;53.49;97540.91;6041253;23;20219;-81
2023/02/10 07:47:12;;;;;;;10.07;7.70;;;;;;;4.26;53.44;97542.25;6069491;23;20211;-81
2023/02/10 07:49:38;;;;;;;14.80;7.67;;;;;;;4.38;52.33;97549.22;6070613;23;20258;-81
2023/02/10 07:52:05;;;;;;;13.20;7.70;;;;;;;4.46;53.06;97547.84;6069705;23;20675;-81
2023/02/10 07:54:33;;;;;;;13.30;7.47;;;;;;;4.38;52.31;97549.22;6037829;23;20205;-81
2023/02/10 07:56:59;;;;;;;13.20;7.37;;;;;;;4.44;52.10;97556.50;6069601;23;20201;-81
2023/02/10 07:59:26;;;;;;;10.60;7.20;;;;;;;4.49;51.82;97552.78;6070614;23;20545;-81
2023/02/10 08:01:53;;;;;;;9.30;6.90;;;;;;;4.68;52.21;97561.88;6069010;23;20212;-82
2023/02/10 08:04:19;;;;;;;12.50;7.70;;;;;;;4.91;51.74;97557.94;6068551;23;20264;-81
2023/02/10 08:06:46;;;;;;;13.00;7.80;;;;;;;5.12;51.53;97564.31;6068941;23;20264;-81
2023/02/10 08:09:12;;;;;;;9.10;7.50;;;;;;;5.22;50.85;97560.25;6069854;23;20566;-81
2023/02/10 08:11:40;;;;;;;12.13;6.63;;;;;;;5.29;50.60;97563.28;6068343;23;20204;-81
2023/02/10 08:14:06;;;;;;;12.23;7.07;;;;;;;5.37;50.53;97561.88;6070251;23;20181;-81
2023/02/10 08:16:33;;;;;;;9.33;7.03;;;;;;;5.58;50.49;97557.13;6069775;23;20210;-82
2023/02/10 08:19:00;;;;;;;9.63;6.70;;;;;;;5.59;49.85;97556.22;6069212;23;20253;-84
2023/02/10 08:21:27;;;;;;;9.33;6.73;;;;;;;5.66;49.57;97549.00;6067956;23;20227;-84
2023/02/10 08:23:56;;;;;;;7.63;6.80;;;;;;;5.71;49.45;97547.78;6070439;23;20181;-84
2023/02/10 08:26:23;;;;;;;8.67;6.70;;;;;;;5.80;49.65;97549.75;6068800;23;20236;-84
2023/02/10 08:28:54;;;;;;;8.90;6.60;;;;;;;5.96;49.06;97559.03;6069183;23;20188;-81
2023/02/10 08:31:21;;;;;;;10.20;7.23;;;;;;;6.23;48.92;97554.66;6068037;23;20318;-82
2023/02/10 08:33:48;;;;;;;7.87;6.63;;;;;;;6.43;48.34;97550.78;6067567;23;20767;-81
2023/02/10 08:36:18;;;;;;;11.23;8.17;;;;;;;6.41;47.15;97557.75;6067439;23;20201;-81
2023/02/10 08:38:45;;;;;;;9.53;7.30;;;;;;;6.55;47.46;97563.56;6069007;23;20181;-81
2023/02/10 08:41:11;;;;;;;11.67;7.13;;;;;;;6.71;46.90;97554.88;6070019;23;20216;-81
2023/02/10 08:43:37;;;;;;;8.27;6.93;;;;;;;6.73;46.82;97558.97;6070030;23;20200;-81
2023/02/10 08:46:06;;;;;;;8.70;7.27;;;;;;;6.76;46.95;97561.31;6070798;23;20243;-82
2023/02/10 08:48:33;;;;;;;11.00;7.87;;;;;;;6.89;47.20;97559.56;6068249;23;20212;-84
2023/02/10 08:51:00;;;;;;;10.53;7.73;;;;;;;7.03;47.09;97550.94;6069476;23;20191;-84
2023/02/10 08:53:27;;;;;;;9.43;7.53;;;;;;;7.05;46.26;97548.25;6068280;23;20213;-84
2023/02/10 08:55:57;;;;;;;11.00;8.60;;;;;;;7.00;46.25;97558.00;6070747;23;20548;-84
2023/02/10 08:58:24;;;;;;;10.53;8.23;;;;;;;6.97;46.30;97555.66;6070275;23;20216;-84
2023/02/10 09:00:50;;;;;;;10.37;8.37;;;;;;;7.11;46.70;97552.97;6068715;23;20205;-83
2023/02/10 09:03:18;;;;;;;11.33;8.80;;;;;;;7.09;46.20;97555.63;6068164;23;20228;-84
2023/02/10 09:05:45;;;;;;;9.33;8.13;;;;;;;7.15;46.36;97547.50;6069782;23;20200;-83
2023/02/10 09:08:12;;;;;;;9.63;8.60;;;;;;;7.16;45.82;97554.28;6069456;23;20268;-84
2023/02/10 09:10:39;;;;;;;11.23;8.90;;;;;;;7.13;46.16;97559.59;6067960;23;20173;-84
2023/02/10 09:13:08;;;;;;;13.77;9.80;;;;;;;7.12;46.01;97559.72;6067956;23;20209;-84
2023/02/10 09:15:36;;;;;;;14.60;9.57;;;;;;;7.18;46.35;97565.22;6052782;23;20221;-84
2023/02/10 09:18:03;;;;;;;16.17;9.47;;;;;;;7.25;45.73;97568.19;6065742;23;20217;-82
2023/02/10 09:20:31;;;;;;;12.77;9.90;;;;;;;7.39;46.20;97562.91;6038575;23;20951;-81
2023/02/10 09:22:57;;;;;;;13.03;10.83;;;;;;;7.33;45.96;97559.94;6064259;23;20550;-82
2023/02/10 09:25:24;;;;;;;14.10;10.57;;;;;;;7.14;46.34;97565.53;6068561;23;20201;-82
2023/02/10 09:27:53;;;;;;;13.30;10.43;;;;;;;7.22;45.98;97561.53;6064490;23;20212;-82
2023/02/10 09:30:19;;;;;;;13.63;10.77;;;;;;;7.22;45.54;97566.66;6067046;23;20203;-82
2023/02/10 09:32:45;;;;;;;13.37;11.27;;;;;;;7.34;46.30;97570.09;6067065;23;20414;-82
2023/02/10 09:35:12;;;;;;;13.67;11.23;;;;;;;7.43;45.54;97573.78;6037900;23;20212;-82
2023/02/10 09:37:40;;;;;;;15.07;11.13;;;;;;;7.48;45.48;97567.41;6067061;23;20205;-82
2023/02/10 09:40:07;;;;;;;15.30;12.07;;;;;;;7.58;46.06;97573.50;6052238;23;20213;-82
2023/02/10 09:42:46;;;;;;;14.60;12.13;;;;;;;7.57;45.45;97579.56;6069822;23;20858;-82
2023/02/10 09:45:19;;;;;;;18.20;13.63;;;;;;;7.61;45.54;97575.84;6052874;23;20217;-82
2023/02/10 09:47:49;;;;;;;18.57;14.00;;;;;;;7.69;45.49;97577.06;6070990;23;20208;-82
2023/02/10 09:50:29;;;;;;;17.87;14.17;;;;;;;7.71;45.27;97581.13;6070397;23;20184;-82
2023/02/10 09:53:06;;;;;;;16.77;14.60;;;;;;;7.85;45.21;97585.28;6068280;23;20204;-82
2023/02/10 09:55:36;;;;;;;16.67;14.47;;;;;;;7.94;45.56;97589.75;6069111;23;20201;-82
2023/02/10 09:58:10;;;;;;;19.77;15.37;;;;;;;7.90;45.53;97583.19;6069648;23;20212;-84
2023/02/10 10:00:41;;;;;;;19.30;16.20;;;;;;;7.93;45.10;97580.41;6054012;23;20240;-81
2023/02/10 10:03:13;;;;;;;20.07;15.63;;;;;;;7.96;45.25;97585.31;6066991;23;20236;-81
2023/02/10 10:05:46;;;;;;;19.87;16.07;;;;;;;7.83;45.90;97574.31;6069658;23;20807;-81
2023/02/10 10:08:22;;;;;;;22.80;16.07;;;;;;;7.85;45.47;97570.72;6068913;23;20573;-81
2023/02/10 10:10:50;;;;;;;25.50;16.47;;;;;;;7.86;45.45;97571.53;6068888;23;20185;-81
2023/02/10 10:13:23;;;;;;;23.40;16.50;;;;;;;8.03;46.06;97578.00;6069675;23;20204;-81
2023/02/10 10:16:04;;;;;;;21.37;16.03;;;;;;;8.07;44.97;97572.56;6069778;23;20197;-81
2023/02/10 10:18:39;;;;;;;26.87;18.17;;;;;;;7.98;45.38;97574.03;6067941;23;20215;-81
2023/02/10 10:21:13;;;;;;;20.20;16.60;;;;;;;8.03;45.38;97571.13;6069100;23;20184;-81
2023/02/10 10:23:53;;;;;;;23.13;16.47;;;;;;;8.07;45.20;97561.47;6069858;23;20790;-81
2023/02/10 10:26:37;;;;;;;23.20;16.60;;;;;;;8.08;44.98;97561.34;6069986;23;20201;-81
2023/02/10 10:29:19;;;;;;;21.23;16.93;;;;;;;8.13;45.13;97564.38;6068505;23;20165;-81
2023/02/10 10:31:47;;;;;;;19.77;15.77;;;;;;;8.13;45.23;97559.25;6069350;23;20220;-81
2023/02/10 10:34:17;;;;;;;21.17;16.70;;;;;;;8.19;45.23;97555.44;6069781;23;20181;-81
2023/02/10 10:36:46;;;;;;;23.83;16.63;;;;;;;8.15;45.51;97556.59;6069163;23;20219;-81
2023/02/10 10:39:24;;;;;;;19.13;15.77;;;;;;;8.25;44.71;97548.09;6069932;23;20190;-81
2023/02/10 10:41:51;;;;;;;21.17;16.23;;;;;;;8.28;45.07;97547.84;6067691;23;20208;-81
2023/02/10 10:44:18;;;;;;;21.80;16.40;;;;;;;8.27;45.06;97551.34;6069968;23;20177;-81
2023/02/10 10:46:49;;;;;;;21.23;16.90;;;;;;;8.33;45.37;97544.97;6070280;23;20212;-81
2023/02/10 10:49:17;;;;;;;21.23;15.80;;;;;;;8.36;45.33;97551.66;6055073;23;20213;-83
2023/02/10 10:51:47;;;;;;;20.83;16.47;;;;;;;8.26;44.79;97539.47;6069061;23;20279;-81
2023/02/10 10:54:17;;;;;;;22.30;16.73;;;;;;;8.32;45.63;97541.59;6070389;23;20184;-81
2023/02/10 10:56:47;;;;;;;21.13;15.50;;;;;;;8.23;44.94;97541.44;6069506;23;20213;-81
2023/02/10 10:59:17;;;;;;;20.70;17.03;;;;;;;8.10;45.44;97533.81;6070424;23;20194;-82
2023/02/10 11:01:46;;;;;;;22.43;16.60;;;;;;;8.19;45.53;97532.34;6068621;23;20209;-81
2023/02/10 11:04:16;;;;;;;18.93;15.67;;;;;;;8.26;45.50;97518.13;6069882;23;20185;-81
2023/02/10 11:06:46;;;;;;;18.53;15.40;;;;;;;8.34;45.57;97509.88;6072172;23;20220;-81
2023/02/10 11:09:29;;;;;;;19.93;15.80;;;;;;;8.42;45.67;97513.50;6071421;23;20176;-81
2023/02/10 11:12:02;;;;;;;22.27;16.40;;;;;;;8.47;44.71;97502.88;6071371;23;20212;-81
2023/02/10 11:14:36;;;;;;;19.63;16.43;;;;;;;8.46;45.09;97507.22;6070701;23;20199;-81
2023/02/10 11:17:04;;;;;;;20.30;15.70;;;;;;;8.28;44.72;97500.84;6070315;23;20711;-81
2023/02/10 11:19:34;;;;;;;21.13;16.33;;;;;;;8.17;44.96;97495.72;6069262;23;20181;-81
2023/02/10 11:22:02;;;;;;;20.03;15.47;;;;;;;8.01;45.22;97487.53;6068373;23;20303;-81
2023/02/10 11:24:32;;;;;;;21.33;16.60;;;;;;;8.13;45.41;97491.72;6068800;23;20204;-81
2023/02/10 11:27:02;;;;;;;24.17;16.17;;;;;;;8.24;45.42;97487.44;6069682;23;20209;-81
2023/02/10 11:29:31;;;;;;;23.53;16.20;;;;;;;8.31;44.83;97482.66;6069474;23;20197;-81
2023/02/10 11:31:59;;;;;;;18.70;15.63;;;;;;;8.44;44.73;97488.53;6068110;23;20259;-81
2023/02/10 11:34:28;;;;;;;21.70;15.60;;;;;;;8.45;44.33;97479.91;6070971;23;20181;-81
2023/02/10 11:36:57;;;;;;;20.13;15.20;;;;;;;8.52;44.75;97482.81;6069359;23;20216;-80